createdAt,value
2022-12-24T00:03:32.876Z,1.08
2022-12-24T00:05:59.892Z,1.52
2022-12-24T00:08:26.589Z,5.88
2022-12-24T00:10:54.278Z,2.00
2022-12-24T00:13:21.602Z,0.82
2022-12-24T00:15:49.084Z,0.98
2022-12-24T00:18:19.980Z,0.50
2022-12-24T00:20:50.550Z,0.57
2022-12-24T00:23:18.647Z,0.55
2022-12-24T00:25:45.779Z,0.93
2022-12-24T00:28:13.318Z,1.35
2022-12-24T00:30:41.351Z,0.98
2022-12-24T00:33:08.480Z,3.15
2022-12-24T00:35:36.417Z,0.70
2022-12-24T00:38:03.935Z,1.02
2022-12-24T00:43:00.874Z,0.98
2022-12-24T00:45:30.891Z,1.30
2022-12-24T00:47:58.825Z,0.22
2022-12-24T00:50:25.630Z,2.45
2022-12-24T00:52:52.351Z,0.87
2022-12-24T00:55:19.868Z,2.08
2022-12-24T00:57:46.737Z,0.52
2022-12-24T01:00:13.673Z,0.55
2022-12-24T01:02:40.541Z,1.38
2022-12-24T01:05:10.544Z,0.55
2022-12-24T01:07:44.055Z,0.70
2022-12-24T01:10:14.578Z,2.95
2022-12-24T01:12:47.758Z,4.35
2022-12-24T01:15:16.073Z,2.78
2022-12-24T01:17:42.776Z,1.20
2022-12-24T01:20:15.612Z,1.70
2022-12-24T01:22:42.427Z,1.55
2022-12-24T01:25:09.891Z,1.37
2022-12-24T01:27:36.987Z,1.58
2022-12-24T01:30:05.791Z,5.88
2022-12-24T01:32:32.708Z,1.67
2022-12-24T01:35:00.635Z,3.88
2022-12-24T01:37:27.404Z,1.45
2022-12-24T01:40:14.055Z,2.00
2022-12-24T01:43:06.017Z,6.57
2022-12-24T01:45:42.974Z,0.90
2022-12-24T01:48:21.043Z,3.13
2022-12-24T01:50:49.687Z,0.80
2022-12-24T01:53:17.133Z,1.50
2022-12-24T01:55:46.049Z,6.03
2022-12-24T01:58:15.004Z,2.92
2022-12-24T02:00:41.950Z,0.98
2022-12-24T02:03:10.734Z,2.47
2022-12-24T02:05:50.920Z,1.15
2022-12-24T02:08:19.863Z,2.33
2022-12-24T02:10:50.597Z,1.60
2022-12-24T02:13:20.447Z,1.83
2022-12-24T02:15:56.511Z,2.17
2022-12-24T02:18:34.890Z,4.28
2022-12-24T02:24:01.647Z,0.88
2022-12-24T02:26:58.873Z,2.20
2022-12-24T02:30:06.327Z,0.90
2022-12-24T02:32:58.806Z,1.08
2022-12-24T02:35:44.492Z,1.23
2022-12-24T02:38:14.131Z,1.83
2022-12-24T02:41:04.243Z,0.82
2022-12-24T02:43:44.965Z,2.90
2022-12-24T02:46:20.538Z,1.73
2022-12-24T02:49:07.312Z,3.15
2022-12-24T02:51:44.013Z,1.35
2022-12-24T02:54:12.561Z,3.22
2022-12-24T02:57:05.326Z,1.98
2022-12-24T02:59:54.576Z,2.88
2022-12-24T03:02:39.004Z,1.88
2022-12-24T03:05:27.867Z,4.57
2022-12-24T03:08:13.366Z,2.80
2022-12-24T03:10:46.884Z,1.27
2022-12-24T03:13:25.434Z,4.25
2022-12-24T03:15:53.130Z,4.57
2022-12-24T03:18:32.413Z,2.75
2022-12-24T03:21:21.695Z,1.88
2022-12-24T03:23:49.933Z,1.35
2022-12-24T03:26:19.198Z,3.42
2022-12-24T03:28:50.789Z,3.40
2022-12-24T03:31:21.846Z,3.63
2022-12-24T03:33:49.509Z,1.65
2022-12-24T03:38:47.015Z,3.00
2022-12-24T03:41:14.979Z,7.45
2022-12-24T03:43:41.959Z,4.45
2022-12-24T03:46:11.172Z,3.80
2022-12-24T03:48:39.092Z,5.93
2022-12-24T03:51:06.183Z,5.38
2022-12-24T03:53:33.612Z,3.33
2022-12-24T03:56:00.602Z,3.22
2022-12-24T03:58:28.344Z,3.67
2022-12-24T04:03:22.410Z,2.83
2022-12-24T04:05:59.436Z,3.05
2022-12-24T04:08:32.383Z,2.70
2022-12-24T04:11:06.177Z,3.85
2022-12-24T04:13:40.664Z,5.03
2022-12-24T04:16:10.639Z,2.90
2022-12-24T04:18:38.432Z,1.35
2022-12-24T04:21:06.677Z,2.97
2022-12-24T04:23:36.245Z,5.68
2022-12-24T04:26:06.373Z,4.13
2022-12-24T04:28:35.385Z,12.70
2022-12-24T04:31:05.046Z,4.65
2022-12-24T04:33:33.942Z,10.98
2022-12-24T04:36:02.558Z,16.83
2022-12-24T04:38:32.114Z,6.05
2022-12-24T04:41:31.144Z,8.70
2022-12-24T04:44:01.559Z,8.57
2022-12-24T04:46:33.690Z,8.75
2022-12-24T04:49:00.560Z,9.48
2022-12-24T04:51:29.608Z,6.97
2022-12-24T04:53:57.204Z,7.00
2022-12-24T04:56:27.306Z,4.63
2022-12-24T04:58:54.470Z,4.68
2022-12-24T05:01:26.279Z,2.33
2022-12-24T05:03:56.625Z,3.55
2022-12-24T05:06:41.494Z,4.88
2022-12-24T05:09:08.329Z,3.00
2022-12-24T05:11:37.236Z,6.45
2022-12-24T05:14:04.374Z,2.13
2022-12-24T05:16:33.707Z,2.88
2022-12-24T05:19:00.996Z,4.28
2022-12-24T05:21:29.976Z,4.30
2022-12-24T05:24:15.347Z,1.85
2022-12-24T05:26:51.217Z,5.10
2022-12-24T05:29:18.240Z,1.85
2022-12-24T05:31:46.431Z,6.38
2022-12-24T05:34:15.747Z,3.47
2022-12-24T05:36:43.415Z,1.98
2022-12-24T05:39:17.013Z,5.07
2022-12-24T05:41:46.703Z,2.22
2022-12-24T05:44:19.488Z,2.33
2022-12-24T05:46:47.562Z,1.45
2022-12-24T05:49:14.815Z,0.93
2022-12-24T05:51:42.090Z,7.07
2022-12-24T05:54:09.722Z,1.13
2022-12-24T05:56:37.035Z,5.57
2022-12-24T05:59:10.771Z,2.97
2022-12-24T06:01:37.888Z,2.10
2022-12-24T06:04:07.643Z,5.45
2022-12-24T06:06:35.197Z,3.67
2022-12-24T06:09:05.737Z,1.55
2022-12-24T06:11:40.655Z,4.10
2022-12-24T06:14:07.488Z,1.77
2022-12-24T06:16:34.695Z,1.10
2022-12-24T06:19:01.731Z,9.00
2022-12-24T06:21:32.748Z,8.98
2022-12-24T06:24:02.224Z,5.60
2022-12-24T06:26:38.793Z,3.35
2022-12-24T06:29:07.050Z,24.45
2022-12-24T06:31:36.113Z,20.17
2022-12-24T06:34:02.986Z,5.60
2022-12-24T06:36:29.976Z,15.10
2022-12-24T06:38:59.675Z,32.47
2022-12-24T06:41:28.056Z,8.10
2022-12-24T06:43:54.969Z,6.30
2022-12-24T06:46:22.645Z,3.58
2022-12-24T06:48:51.251Z,3.72
2022-12-24T06:51:22.344Z,5.78
2022-12-24T06:53:52.893Z,3.53
2022-12-24T06:56:21.058Z,4.43
2022-12-24T06:59:04.885Z,13.65
2022-12-24T07:01:32.334Z,6.25
2022-12-24T07:03:59.697Z,9.98
2022-12-24T07:06:29.518Z,5.40
2022-12-24T07:08:57.039Z,4.38
2022-12-24T07:11:25.067Z,0.77
2022-12-24T07:13:57.467Z,5.28
2022-12-24T07:16:24.628Z,1.80
2022-12-24T07:18:51.578Z,1.92
2022-12-24T07:21:18.885Z,3.08
2022-12-24T07:23:45.784Z,2.25
2022-12-24T07:26:13.653Z,6.65
2022-12-24T07:28:40.558Z,3.38
2022-12-24T07:31:09.904Z,2.75
2022-12-24T07:33:36.871Z,6.68
2022-12-24T07:36:06.967Z,3.03
2022-12-24T07:38:37.629Z,5.07
2022-12-24T07:41:08.037Z,8.20
2022-12-24T07:43:36.304Z,6.38
2022-12-24T07:46:04.063Z,6.47
2022-12-24T07:48:33.452Z,3.42
2022-12-24T07:51:02.359Z,6.15
2022-12-24T07:53:30.017Z,8.80
2022-12-24T07:58:28.325Z,7.03
2022-12-24T08:01:09.694Z,5.28
2022-12-24T08:03:38.061Z,7.80
2022-12-24T08:06:12.711Z,3.58
2022-12-24T08:08:40.079Z,4.75
2022-12-24T08:11:15.593Z,5.18
2022-12-24T08:13:42.511Z,4.03
2022-12-24T08:16:09.856Z,4.10
2022-12-24T08:21:10.007Z,4.47
2022-12-24T08:23:38.673Z,5.15
2022-12-24T08:26:11.726Z,17.17
2022-12-24T08:28:47.953Z,18.40
2022-12-24T08:31:18.467Z,17.60
2022-12-24T08:33:45.592Z,8.23
2022-12-24T08:36:12.462Z,7.05
2022-12-24T08:38:40.673Z,5.75
2022-12-24T08:41:18.244Z,4.13
2022-12-24T08:43:50.875Z,2.65
2022-12-24T08:46:17.754Z,5.93
2022-12-24T08:48:44.895Z,3.67
2022-12-24T08:51:21.672Z,3.97
2022-12-24T08:53:54.679Z,3.00
2022-12-24T08:56:28.800Z,3.40
2022-12-24T08:58:56.048Z,1.17
2022-12-24T09:01:23.891Z,1.27
2022-12-24T09:03:51.022Z,3.00
2022-12-24T09:06:18.678Z,1.15
2022-12-24T09:11:22.669Z,3.67
2022-12-24T09:13:52.444Z,2.60
2022-12-24T09:16:20.562Z,1.55
2022-12-24T09:18:50.801Z,1.25
2022-12-24T09:21:20.985Z,2.85
2022-12-24T09:23:53.533Z,1.35
2022-12-24T09:26:30.283Z,3.20
2022-12-24T09:29:02.365Z,2.97
2022-12-24T09:31:30.323Z,2.33
2022-12-24T09:34:00.133Z,2.20
2022-12-24T09:36:31.727Z,2.60
2022-12-24T09:39:03.555Z,3.72
2022-12-24T09:42:08.175Z,9.77
2022-12-24T09:44:58.902Z,2.97
2022-12-24T09:47:42.882Z,14.23
2022-12-24T09:50:26.849Z,6.65
2022-12-24T09:53:01.333Z,13.23
2022-12-24T09:55:51.439Z,11.63
2022-12-24T09:58:56.084Z,5.00
2022-12-24T10:01:24.794Z,1.80
2022-12-24T10:03:55.397Z,2.88
2022-12-24T10:06:33.047Z,2.58
2022-12-24T10:09:10.520Z,2.42
2022-12-24T10:12:06.556Z,1.60
2022-12-24T10:14:39.175Z,2.67
2022-12-24T10:17:35.950Z,3.45
2022-12-24T10:20:35.223Z,4.32
2022-12-24T10:23:46.866Z,12.05
2022-12-24T10:26:40.440Z,2.65
2022-12-24T10:29:17.002Z,5.13
2022-12-24T10:32:17.780Z,5.03
2022-12-24T10:35:02.274Z,5.40
2022-12-24T10:37:31.847Z,4.47
2022-12-24T10:40:01.056Z,6.75
2022-12-24T10:42:48.381Z,2.45
2022-12-24T10:45:23.737Z,5.93
2022-12-24T10:47:57.534Z,3.22
2022-12-24T10:50:27.265Z,2.42
2022-12-24T10:53:05.596Z,1.50
2022-12-24T10:55:33.432Z,1.27
2022-12-24T10:58:07.698Z,3.45
2022-12-24T11:00:37.157Z,4.50
2022-12-24T11:03:16.138Z,2.10
2022-12-24T11:06:00.125Z,4.95
2022-12-24T11:08:27.812Z,2.63
2022-12-24T11:13:49.368Z,1.45
2022-12-24T11:16:35.933Z,30.15
2022-12-24T11:19:06.982Z,4.22
2022-12-24T11:21:40.793Z,1.35
2022-12-24T11:24:20.578Z,5.07
2022-12-24T11:26:54.249Z,0.65
2022-12-24T11:29:29.359Z,1.13
2022-12-24T11:32:33.715Z,1.23
2022-12-24T11:35:22.936Z,2.53
2022-12-24T11:38:03.326Z,1.42
2022-12-24T11:41:04.198Z,1.27
2022-12-24T11:43:50.598Z,2.33
2022-12-24T11:46:43.060Z,2.83
2022-12-24T11:49:13.131Z,1.92
2022-12-24T11:52:11.680Z,1.42
2022-12-24T11:55:16.443Z,4.15
2022-12-24T11:57:51.991Z,0.47
2022-12-24T12:00:19.278Z,28.88
2022-12-24T12:02:52.618Z,4.72
2022-12-24T12:05:35.282Z,5.07
2022-12-24T12:08:17.978Z,2.53
2022-12-24T12:10:46.958Z,2.17
2022-12-24T12:13:24.900Z,1.42
2022-12-24T12:16:14.541Z,2.25
2022-12-24T12:18:51.666Z,2.28
2022-12-24T12:21:25.822Z,2.28
2022-12-24T12:24:03.716Z,2.83
2022-12-24T12:26:32.672Z,4.03
2022-12-24T12:29:22.590Z,0.90
2022-12-24T12:32:06.602Z,2.25
2022-12-24T12:34:42.753Z,1.95
2022-12-24T12:37:26.447Z,2.80
2022-12-24T12:39:55.518Z,5.80
2022-12-24T12:42:38.016Z,1.65
2022-12-24T12:45:37.989Z,2.13
2022-12-24T12:48:28.749Z,1.70
2022-12-24T12:51:33.591Z,0.93
2022-12-24T12:54:06.609Z,2.22
2022-12-24T12:56:37.260Z,1.63
2022-12-24T12:59:20.154Z,1.30
2022-12-24T13:02:05.294Z,1.27
2022-12-24T13:05:08.321Z,1.40
2022-12-24T13:08:09.566Z,2.30
2022-12-24T13:11:06.473Z,0.65
2022-12-24T13:13:33.294Z,2.53
2022-12-24T13:16:19.217Z,1.20
2022-12-24T13:19:07.758Z,1.25
2022-12-24T13:21:36.177Z,1.63
2022-12-24T13:24:28.080Z,0.85
2022-12-24T13:27:19.374Z,1.45
2022-12-24T13:30:25.221Z,2.60
2022-12-24T13:32:54.199Z,1.42
2022-12-24T13:35:21.449Z,7.10
2022-12-24T13:37:50.211Z,15.48
2022-12-24T13:40:26.705Z,3.38
2022-12-24T13:43:06.295Z,2.63
2022-12-24T13:45:45.179Z,0.93
2022-12-24T13:48:32.623Z,2.50
2022-12-24T13:51:26.377Z,4.22
2022-12-24T13:53:58.800Z,3.05
2022-12-24T13:56:27.368Z,1.63
2022-12-24T13:59:55.698Z,5.07
2022-12-24T14:02:24.878Z,2.38
2022-12-24T14:05:04.360Z,2.90
2022-12-24T14:07:34.952Z,5.85
2022-12-24T14:10:05.810Z,2.90
2022-12-24T14:12:57.645Z,6.18
2022-12-24T14:15:51.855Z,2.25
2022-12-24T14:18:28.201Z,2.20
2022-12-24T14:21:04.250Z,4.22
2022-12-24T14:23:57.148Z,4.22
2022-12-24T14:26:30.469Z,3.60
2022-12-24T14:29:27.153Z,2.50
2022-12-24T14:32:08.004Z,3.97
2022-12-24T14:34:38.571Z,5.65
2022-12-24T14:37:08.402Z,6.35
2022-12-24T14:39:37.624Z,9.23
2022-12-24T14:42:36.166Z,24.10
2022-12-24T14:45:12.585Z,22.50
2022-12-24T14:47:55.179Z,9.40
2022-12-24T14:50:34.268Z,5.43
2022-12-24T14:53:31.422Z,4.82
2022-12-24T14:56:19.009Z,10.07
2022-12-24T14:58:50.286Z,6.68
2022-12-24T15:01:36.852Z,3.97
2022-12-24T15:04:09.924Z,7.07
2022-12-24T15:06:47.883Z,4.65
2022-12-24T15:09:29.353Z,7.45
2022-12-24T15:12:04.926Z,9.88
2022-12-24T15:14:50.390Z,65.90
2022-12-24T15:17:18.778Z,38.50
2022-12-24T15:19:50.421Z,17.67
2022-12-24T15:22:36.253Z,10.32
2022-12-24T15:25:03.200Z,5.82
2022-12-24T15:27:38.743Z,4.82
2022-12-24T15:30:20.506Z,8.57
2022-12-24T15:33:00.593Z,77.80
2022-12-24T15:35:49.522Z,17.75
2022-12-24T15:41:26.561Z,8.38
2022-12-24T15:44:01.432Z,8.73
2022-12-24T15:46:32.524Z,10.20
2022-12-24T15:49:01.911Z,5.55
2022-12-24T15:51:40.497Z,9.60
2022-12-24T15:54:15.868Z,10.02
2022-12-24T15:56:48.203Z,6.13
2022-12-24T15:59:37.751Z,3.60
2022-12-24T16:02:28.726Z,2.83
2022-12-24T16:05:38.299Z,7.65
2022-12-24T16:08:31.336Z,3.03
2022-12-24T16:11:19.671Z,19.75
2022-12-24T16:13:50.868Z,13.38
2022-12-24T16:16:34.366Z,9.13
2022-12-24T16:19:03.679Z,6.32
2022-12-24T16:21:34.365Z,16.60
2022-12-24T16:24:12.592Z,5.72
2022-12-24T16:26:43.696Z,8.20
2022-12-24T16:29:14.079Z,6.70
2022-12-24T16:31:51.048Z,5.32
2022-12-24T16:34:18.872Z,4.95
2022-12-24T16:36:47.053Z,5.97
2022-12-24T16:39:27.157Z,5.65
2022-12-24T16:42:18.114Z,7.32
2022-12-24T16:44:48.143Z,4.82
2022-12-24T16:47:26.464Z,5.93
2022-12-24T16:52:26.305Z,4.65
2022-12-24T16:54:53.337Z,6.93
2022-12-24T16:57:22.376Z,2.85
2022-12-24T16:59:49.569Z,5.75
2022-12-24T17:02:20.801Z,7.03
2022-12-24T17:04:48.383Z,4.28
2022-12-24T17:07:17.646Z,20.40
2022-12-24T17:09:44.848Z,30.63
2022-12-24T17:12:11.799Z,27.83
2022-12-24T17:14:39.994Z,14.32
2022-12-24T17:17:22.712Z,12.68
2022-12-24T17:19:49.602Z,12.38
2022-12-24T17:22:16.581Z,10.25
2022-12-24T17:24:43.796Z,5.55
2022-12-24T17:27:10.594Z,27.95
2022-12-24T17:29:37.560Z,20.70
2022-12-24T17:32:04.720Z,22.58
2022-12-24T17:34:31.443Z,16.15
2022-12-24T17:36:58.245Z,14.00
2022-12-24T17:39:28.097Z,28.63
2022-12-24T17:41:59.133Z,20.65
2022-12-24T17:44:32.549Z,12.27
2022-12-24T17:47:02.129Z,26.92
2022-12-24T17:49:29.148Z,38.30
2022-12-24T17:51:58.603Z,74.70
2022-12-24T17:54:29.723Z,73.22
2022-12-24T17:56:59.522Z,43.80
2022-12-24T17:59:27.682Z,53.70
2022-12-24T18:01:54.972Z,89.30
2022-12-24T18:04:23.033Z,70.68
2022-12-24T18:06:50.120Z,45.90
2022-12-24T18:09:18.381Z,39.78
2022-12-24T18:11:45.242Z,58.55
2022-12-24T18:14:14.222Z,42.00
2022-12-24T18:16:43.390Z,66.15
2022-12-24T18:19:12.499Z,58.90
2022-12-24T18:21:41.779Z,51.10
2022-12-24T18:24:17.438Z,73.63
2022-12-24T18:26:46.244Z,41.90
2022-12-24T18:29:15.321Z,43.92
2022-12-24T18:31:42.319Z,58.50
2022-12-24T18:34:12.619Z,47.95
2022-12-24T18:36:41.096Z,44.67
2022-12-24T18:39:08.558Z,43.20
2022-12-24T18:41:36.184Z,43.88
2022-12-24T18:44:03.334Z,38.03
2022-12-24T18:46:33.348Z,34.47
2022-12-24T18:49:04.699Z,14.73
2022-12-24T18:51:36.584Z,7.63
2022-12-24T18:54:06.723Z,8.13
2022-12-24T18:56:34.612Z,7.60
2022-12-24T18:59:05.963Z,7.65
2022-12-24T19:01:35.363Z,6.82
2022-12-24T19:04:03.186Z,5.35
2022-12-24T19:06:33.145Z,5.88
2022-12-24T19:09:01.996Z,8.07
2022-12-24T19:11:31.455Z,4.90
2022-12-24T19:13:59.479Z,10.73
2022-12-24T19:16:27.558Z,8.43
2022-12-24T19:18:54.598Z,5.97
2022-12-24T19:21:21.666Z,4.82
2022-12-24T19:23:51.715Z,7.30
2022-12-24T19:26:20.231Z,4.75
2022-12-24T19:28:47.801Z,4.95
2022-12-24T19:33:56.581Z,7.72
2022-12-24T19:36:32.236Z,3.80
2022-12-24T19:39:00.653Z,5.32
2022-12-24T19:41:37.049Z,3.17
2022-12-24T19:44:05.069Z,3.45
2022-12-24T19:46:34.812Z,3.88
2022-12-24T19:49:05.600Z,2.33
2022-12-24T19:51:40.145Z,3.33
2022-12-24T19:54:19.012Z,1.92
2022-12-24T19:56:54.637Z,4.25
2022-12-24T19:59:24.466Z,3.33
2022-12-24T20:01:54.046Z,3.95
2022-12-24T20:04:24.304Z,5.88
2022-12-24T20:06:59.752Z,1.85
2022-12-24T20:09:32.663Z,1.65
2022-12-24T20:12:04.077Z,2.30
2022-12-24T20:14:30.887Z,2.22
2022-12-24T20:17:05.329Z,3.35
2022-12-24T20:19:36.043Z,3.42
2022-12-24T20:22:03.201Z,2.95
2022-12-24T20:24:33.406Z,6.10
2022-12-24T20:27:01.579Z,5.15
2022-12-24T20:29:28.582Z,3.88
2022-12-24T20:31:59.452Z,7.47
2022-12-24T20:34:28.703Z,5.90
2022-12-24T20:36:57.744Z,4.13
2022-12-24T20:39:28.133Z,5.75
2022-12-24T20:41:56.638Z,6.20
2022-12-24T20:44:24.824Z,3.95
2022-12-24T20:46:51.901Z,5.05
2022-12-24T20:49:19.131Z,8.75
2022-12-24T20:51:49.762Z,6.00
2022-12-24T20:54:21.848Z,8.55
2022-12-24T20:56:57.776Z,10.68
2022-12-24T20:59:26.089Z,13.70
2022-12-24T21:02:02.057Z,14.20
2022-12-24T21:04:32.989Z,16.25
2022-12-24T21:07:01.198Z,13.77
2022-12-24T21:09:33.162Z,11.77
2022-12-24T21:12:19.613Z,15.82
2022-12-24T21:14:51.900Z,13.45
2022-12-24T21:17:27.066Z,15.60
2022-12-24T21:19:56.901Z,17.00
2022-12-24T21:22:28.056Z,14.98
2022-12-24T21:25:09.635Z,14.88
2022-12-24T21:27:37.120Z,20.80
2022-12-24T21:32:37.354Z,16.42
2022-12-24T21:35:23.508Z,14.20
2022-12-24T21:38:00.568Z,18.20
2022-12-24T21:40:35.880Z,15.73
2022-12-24T21:43:08.656Z,11.48
2022-12-24T21:45:41.968Z,10.23
2022-12-24T21:48:32.804Z,11.15
2022-12-24T21:51:03.000Z,11.13
2022-12-24T21:53:48.913Z,15.18
2022-12-24T21:56:22.182Z,11.73
2022-12-24T21:58:51.139Z,12.20
2022-12-24T22:01:19.489Z,14.98
2022-12-24T22:03:50.381Z,16.58
2022-12-24T22:06:36.194Z,12.63
2022-12-24T22:09:21.938Z,18.38
2022-12-24T22:11:54.425Z,17.98
2022-12-24T22:14:22.189Z,16.90
2022-12-24T22:16:49.436Z,16.67
2022-12-24T22:19:17.484Z,17.35
2022-12-24T22:21:48.183Z,15.57
2022-12-24T22:24:17.766Z,18.20
2022-12-24T22:26:45.400Z,19.13
2022-12-24T22:29:16.377Z,17.50
2022-12-24T22:31:57.303Z,16.92
2022-12-24T22:34:41.349Z,18.00
2022-12-24T22:37:09.019Z,17.50
2022-12-24T22:42:11.955Z,16.00
2022-12-24T22:44:42.364Z,15.88
2022-12-24T22:47:12.299Z,14.65
2022-12-24T22:49:58.501Z,17.35
2022-12-24T22:52:26.854Z,14.93
2022-12-24T22:54:54.765Z,17.15
2022-12-24T22:57:21.893Z,35.88
2022-12-24T22:59:50.071Z,31.13
2022-12-24T23:02:22.111Z,35.33
2022-12-24T23:04:53.177Z,21.65
2022-12-24T23:07:21.121Z,16.80
2022-12-24T23:09:48.047Z,26.83
2022-12-24T23:12:34.955Z,20.00
2022-12-24T23:15:04.835Z,17.15
2022-12-24T23:17:39.372Z,13.98
2022-12-24T23:20:13.664Z,18.13
2022-12-24T23:22:52.174Z,12.27
2022-12-24T23:25:20.759Z,13.05
2022-12-24T23:27:57.719Z,11.50
2022-12-24T23:30:29.845Z,14.90
2022-12-24T23:32:57.403Z,13.25
2022-12-24T23:35:27.817Z,11.48
2022-12-24T23:38:08.127Z,11.43
2022-12-24T23:40:38.357Z,12.02
2022-12-24T23:43:21.233Z,14.18
2022-12-24T23:46:03.357Z,13.00
2022-12-24T23:48:36.847Z,13.85
2022-12-24T23:51:16.857Z,14.07
2022-12-24T23:53:54.892Z,19.45
2022-12-24T23:56:26.773Z,18.27
2022-12-24T23:58:55.452Z,15.93
